Time;durP1;ratioP1;P1;durP2;ratioP2;P2;SDS_P1;SDS_P2;PMS_P1;PMS_P2;Temp;Humidity;BMP_temperature;BMP_pressure;BME280_temperature;BME280_humidity;BME280_pressure;Samples;Min_cycle;Max_cycle;Signal;HPM_P1;HPM_P2
2023/12/28 00:01:22;;;;;;;5.70;3.65;;;9.00;99.90;;;;;;4983980;28;20046;-90
2023/12/28 00:03:47;;;;;;;4.32;3.50;;;9.10;99.90;;;;;;5015575;28;20038;-90
2023/12/28 00:06:13;;;;;;;5.15;3.47;;;9.00;99.90;;;;;;5007816;28;20054;-91
2023/12/28 00:08:40;;;;;;;5.38;3.70;;;9.00;99.90;;;;;;5009545;28;20049;-90
2023/12/28 00:11:13;;;;;;;4.82;3.47;;;9.10;99.90;;;;;;5005938;28;20974;-89
2023/12/28 00:13:38;;;;;;;7.78;3.85;;;9.10;99.90;;;;;;4999227;28;20103;-88
2023/12/28 00:16:05;;;;;;;5.35;3.53;;;9.00;99.90;;;;;;5007496;28;20037;-91
2023/12/28 00:18:30;;;;;;;7.80;3.63;;;9.10;99.90;;;;;;5000065;28;20392;-91
2023/12/28 00:20:56;;;;;;;7.13;3.92;;;9.10;99.90;;;;;;5001752;28;20042;-90
2023/12/28 00:23:22;;;;;;;4.22;3.22;;;9.20;99.90;;;;;;5010628;28;20040;-90
2023/12/28 00:25:48;;;;;;;4.43;3.80;;;9.20;99.90;;;;;;5008241;28;20048;-89
2023/12/28 00:28:14;;;;;;;6.20;3.65;;;9.20;99.90;;;;;;5007826;28;21178;-90
2023/12/28 00:30:39;;;;;;;8.18;3.90;;;9.20;99.90;;;;;;5021523;28;20385;-90
2023/12/28 00:33:05;;;;;;;5.93;3.78;;;9.30;99.90;;;;;;5007210;28;20084;-90
2023/12/28 00:35:31;;;;;;;5.82;4.05;;;9.30;99.90;;;;;;5010636;28;20075;-91
2023/12/28 00:37:56;;;;;;;5.82;3.30;;;9.30;99.90;;;;;;5022908;28;20083;-90
2023/12/28 00:40:22;;;;;;;6.00;3.72;;;9.30;99.90;;;;;;5026989;28;20033;-90
2023/12/28 00:42:48;;;;;;;5.68;3.50;;;9.30;99.90;;;;;;5001353;28;20186;-91
2023/12/28 00:45:14;;;;;;;4.80;3.45;;;9.30;99.90;;;;;;5017812;28;20062;-89
2023/12/28 00:47:42;;;;;;;8.32;3.63;;;9.40;99.90;;;;;;5008777;28;20037;-89
2023/12/28 00:50:09;;;;;;;5.88;3.63;;;9.30;99.90;;;;;;5027861;28;20048;-90
2023/12/28 00:52:34;;;;;;;9.68;3.70;;;9.30;99.90;;;;;;5020519;28;20071;-89
2023/12/28 00:55:00;;;;;;;9.40;4.47;;;9.30;99.90;;;;;;5028236;28;20040;-90
2023/12/28 00:57:26;;;;;;;8.95;3.90;;;9.30;99.90;;;;;;5014210;28;20048;-90
2023/12/28 00:59:52;;;;;;;7.50;3.70;;;9.30;99.90;;;;;;5030586;28;20499;-91
2023/12/28 01:02:18;;;;;;;7.80;3.70;;;9.30;99.90;;;;;;5008579;28;20110;-90
2023/12/28 01:04:43;;;;;;;7.38;4.03;;;9.30;99.90;;;;;;5019433;28;20045;-90
2023/12/28 01:07:09;;;;;;;6.40;3.55;;;9.20;99.90;;;;;;5028504;28;20036;-90
2023/12/28 01:09:34;;;;;;;5.70;3.65;;;9.10;99.90;;;;;;5000680;28;20107;-90
2023/12/28 01:12:00;;;;;;;5.20;3.53;;;9.10;99.90;;;;;;5022294;28;20049;-91
2023/12/28 01:14:26;;;;;;;7.05;3.65;;;9.10;99.90;;;;;;5011853;28;20037;-88
2023/12/28 01:16:52;;;;;;;6.43;3.65;;;9.00;99.90;;;;;;5004801;28;20505;-90
2023/12/28 01:19:17;;;;;;;9.57;4.82;;;9.00;99.90;;;;;;5018550;28;20057;-90
2023/12/28 01:21:43;;;;;;;6.20;4.00;;;9.00;99.90;;;;;;5004235;28;20504;-91
2023/12/28 01:24:09;;;;;;;9.00;3.90;;;9.00;99.90;;;;;;5020904;28;20466;-90
2023/12/28 01:26:34;;;;;;;8.75;4.10;;;8.90;99.90;;;;;;5002686;28;20041;-90
2023/12/28 01:29:03;;;;;;;9.35;3.60;;;9.00;99.90;;;;;;5004779;28;20616;-91
2023/12/28 01:31:29;;;;;;;8.50;4.10;;;9.00;99.90;;;;;;4999204;28;20212;-91
2023/12/28 01:33:55;;;;;;;7.47;4.20;;;8.90;99.90;;;;;;5020680;28;20032;-90
2023/12/28 01:36:22;;;;;;;9.73;4.40;;;8.90;99.90;;;;;;5017436;28;20336;-89
2023/12/28 01:38:48;;;;;;;6.53;3.20;;;8.90;99.90;;;;;;5013502;28;20303;-90
2023/12/28 01:41:15;;;;;;;7.38;3.75;;;8.90;99.90;;;;;;5006340;28;20134;-89
2023/12/28 01:43:41;;;;;;;7.28;3.63;;;9.00;99.90;;;;;;5005560;28;20053;-90
2023/12/28 01:46:13;;;;;;;9.88;4.15;;;9.00;99.90;;;;;;5002555;28;20052;-90
2023/12/28 01:48:39;;;;;;;9.80;3.90;;;8.90;99.90;;;;;;5019565;28;20527;-90
2023/12/28 01:51:05;;;;;;;6.28;3.80;;;8.90;99.90;;;;;;5006248;28;20048;-89
2023/12/28 01:53:31;;;;;;;7.43;3.95;;;8.90;99.90;;;;;;4999764;28;20053;-82
2023/12/28 01:55:57;;;;;;;9.15;3.42;;;8.90;99.90;;;;;;4996409;28;20646;-82
2023/12/28 01:58:24;;;;;;;10.15;4.53;;;8.90;99.90;;;;;;5015718;28;20454;-82
2023/12/28 02:00:50;;;;;;;9.75;4.22;;;9.00;99.90;;;;;;5008884;28;20209;-89
2023/12/28 02:03:16;;;;;;;9.45;4.30;;;8.90;99.90;;;;;;5002953;28;20507;-90
2023/12/28 02:05:42;;;;;;;10.68;4.13;;;9.00;99.90;;;;;;5024024;28;20045;-90
2023/12/28 02:08:07;;;;;;;9.43;3.78;;;9.00;99.90;;;;;;5002285;28;20054;-90
2023/12/28 02:10:33;;;;;;;7.40;3.90;;;9.10;99.90;;;;;;4998175;28;20472;-90
2023/12/28 02:12:59;;;;;;;12.13;4.38;;;9.10;99.90;;;;;;5015769;28;20044;-90
2023/12/28 02:15:25;;;;;;;10.23;4.03;;;9.10;99.90;;;;;;5021295;28;20059;-90
2023/12/28 02:18:12;;;;;;;9.05;4.18;;;9.00;99.90;;;;;;5020481;28;20505;-90
2023/12/28 02:20:40;;;;;;;8.40;3.70;;;9.10;99.90;;;;;;5003125;28;20045;-90
2023/12/28 02:23:06;;;;;;;6.40;3.40;;;9.00;99.90;;;;;;5003536;28;20519;-90
2023/12/28 02:25:32;;;;;;;13.50;3.95;;;9.10;99.90;;;;;;5000264;28;20127;-89
2023/12/28 02:27:58;;;;;;;11.35;3.95;;;9.20;99.90;;;;;;5019799;28;20548;-90
2023/12/28 02:30:25;;;;;;;9.32;4.07;;;9.10;99.90;;;;;;5003974;28;20095;-90
2023/12/28 02:33:24;;;;;;;12.23;3.63;;;9.10;99.90;;;;;;5033867;28;20045;-90
2023/12/28 02:36:05;;;;;;;10.38;3.50;;;9.00;99.90;;;;;;5006916;28;20044;-89
2023/12/28 02:38:37;;;;;;;7.95;3.22;;;9.20;99.90;;;;;;5000302;28;20043;-89
2023/12/28 02:41:03;;;;;;;8.85;4.13;;;9.10;99.90;;;;;;5019374;28;20499;-89
2023/12/28 02:43:29;;;;;;;9.85;3.92;;;9.20;99.90;;;;;;5021508;28;20086;-91
2023/12/28 02:45:55;;;;;;;11.15;4.00;;;9.10;99.90;;;;;;5007060;28;20075;-89
2023/12/28 02:48:21;;;;;;;11.07;3.97;;;9.20;99.90;;;;;;4997556;28;20540;-90
2023/12/28 02:50:47;;;;;;;9.18;3.92;;;9.30;99.90;;;;;;5001795;28;20052;-90
2023/12/28 02:53:13;;;;;;;10.18;3.70;;;9.30;99.90;;;;;;5000629;28;20507;-90
2023/12/28 02:55:39;;;;;;;10.43;3.20;;;9.30;99.90;;;;;;5010180;28;20066;-89
2023/12/28 02:58:05;;;;;;;8.80;3.40;;;9.40;99.90;;;;;;5020431;28;20539;-90
2023/12/28 03:00:33;;;;;;;7.03;3.00;;;9.40;99.90;;;;;;5002254;28;20073;-90
2023/12/28 03:02:59;;;;;;;9.38;3.30;;;9.50;99.90;;;;;;5008668;28;20041;-88
2023/12/28 03:05:27;;;;;;;9.73;3.95;;;9.50;99.90;;;;;;5009509;28;20060;-89
2023/12/28 03:07:55;;;;;;;16.15;3.55;;;9.50;99.90;;;;;;5019280;28;20892;-90
2023/12/28 03:10:21;;;;;;;12.30;3.50;;;9.50;99.90;;;;;;5001411;28;20057;-90
2023/12/28 03:12:47;;;;;;;8.40;3.10;;;9.60;99.90;;;;;;5004657;28;20138;-90
2023/12/28 03:15:13;;;;;;;13.65;3.08;;;9.70;99.90;;;;;;4998641;28;20045;-90
2023/12/28 03:17:39;;;;;;;10.15;3.22;;;9.70;99.90;;;;;;5001973;28;20048;-90
2023/12/28 03:20:05;;;;;;;9.18;2.72;;;9.70;99.90;;;;;;4994738;28;20041;-88
2023/12/28 03:22:31;;;;;;;9.40;2.88;;;9.80;99.90;;;;;;4995876;28;20041;-90
2023/12/28 03:25:00;;;;;;;9.50;3.47;;;9.80;99.90;;;;;;5002979;28;20079;-89
2023/12/28 03:27:26;;;;;;;9.65;3.22;;;9.70;99.90;;;;;;5014177;28;20048;-90
2023/12/28 03:29:52;;;;;;;12.38;3.47;;;9.80;99.90;;;;;;4991391;28;20037;-89
2023/12/28 03:32:17;;;;;;;8.77;3.03;;;9.80;99.90;;;;;;5000866;28;20041;-90
2023/12/28 03:34:43;;;;;;;7.22;2.97;;;9.80;99.90;;;;;;5010306;28;20073;-90
2023/12/28 03:37:11;;;;;;;10.10;3.13;;;9.90;99.90;;;;;;5001922;28;20107;-89
2023/12/28 03:39:37;;;;;;;7.63;3.05;;;9.90;99.90;;;;;;5006691;28;20041;-89
2023/12/28 03:42:03;;;;;;;11.13;3.28;;;9.90;99.90;;;;;;4999487;28;20278;-90
2023/12/28 03:44:28;;;;;;;8.23;2.63;;;9.90;99.90;;;;;;4986305;28;20053;-90
2023/12/28 03:46:55;;;;;;;9.07;2.88;;;9.90;99.90;;;;;;4968618;28;20041;-90
2023/12/28 03:49:21;;;;;;;8.05;3.08;;;9.90;99.90;;;;;;4979245;28;20042;-90
2023/12/28 03:51:49;;;;;;;7.88;2.90;;;9.80;99.90;;;;;;4986704;28;20125;-88
2023/12/28 03:54:24;;;;;;;8.23;2.50;;;9.90;99.90;;;;;;4971621;28;20416;-90
2023/12/28 03:56:50;;;;;;;9.32;2.72;;;9.90;99.90;;;;;;4996013;28;20308;-89
2023/12/28 03:59:15;;;;;;;10.95;2.72;;;9.80;99.90;;;;;;4983877;28;20037;-89
2023/12/28 04:01:42;;;;;;;6.90;2.75;;;9.90;99.90;;;;;;4982633;28;20461;-88
2023/12/28 04:04:08;;;;;;;12.70;3.00;;;9.80;99.90;;;;;;4992659;28;20045;-90
2023/12/28 04:06:34;;;;;;;11.73;3.33;;;9.90;99.90;;;;;;5015381;28;20441;-90
2023/12/28 04:08:59;;;;;;;10.77;3.08;;;10.00;99.90;;;;;;5000327;28;20180;-89
2023/12/28 04:11:25;;;;;;;11.32;2.78;;;9.90;99.90;;;;;;5017881;28;20061;-90
2023/12/28 04:13:51;;;;;;;10.50;3.10;;;9.90;99.90;;;;;;4999242;28;20046;-90
2023/12/28 04:16:17;;;;;;;9.75;2.70;;;9.90;99.90;;;;;;5017049;28;20041;-89
2023/12/28 04:18:43;;;;;;;6.57;2.78;;;10.00;99.90;;;;;;4994636;28;20059;-90
2023/12/28 04:21:12;;;;;;;8.07;3.13;;;10.10;99.90;;;;;;5004201;28;20128;-90
2023/12/28 04:23:41;;;;;;;12.63;2.90;;;10.10;99.90;;;;;;5022100;28;20048;-89
2023/12/28 04:26:07;;;;;;;7.38;2.38;;;10.20;99.90;;;;;;5009640;28;20052;-90
2023/12/28 04:28:34;;;;;;;12.63;3.22;;;10.10;99.90;;;;;;5001420;28;20041;-89
2023/12/28 04:31:04;;;;;;;9.75;2.78;;;10.10;99.90;;;;;;5019165;28;20080;-89
2023/12/28 04:33:31;;;;;;;10.80;2.80;;;10.20;99.90;;;;;;5036660;28;20095;-89
2023/12/28 04:35:56;;;;;;;9.60;2.80;;;10.10;99.90;;;;;;5006045;28;20044;-90
2023/12/28 04:38:22;;;;;;;9.23;2.75;;;10.20;99.90;;;;;;5004253;28;20048;-89
2023/12/28 04:40:48;;;;;;;9.93;3.05;;;10.20;99.90;;;;;;5006135;28;20140;-89
2023/12/28 04:43:14;;;;;;;13.75;2.53;;;10.30;99.90;;;;;;5002550;28;20222;-90
2023/12/28 04:45:39;;;;;;;6.88;2.85;;;10.40;99.90;;;;;;4996381;28;20041;-89
2023/12/28 04:48:05;;;;;;;13.52;3.28;;;10.40;99.90;;;;;;5005211;28;20399;-90
2023/12/28 04:50:31;;;;;;;13.85;3.38;;;10.40;99.90;;;;;;5021478;28;20102;-89
2023/12/28 04:52:57;;;;;;;9.73;2.88;;;10.40;99.90;;;;;;4992667;28;20067;-90
2023/12/28 04:55:24;;;;;;;11.18;3.08;;;10.40;99.90;;;;;;4997759;28;20037;-90
2023/12/28 04:57:50;;;;;;;9.30;3.20;;;10.50;99.90;;;;;;5004165;28;20114;-90
2023/12/28 05:00:15;;;;;;;12.35;2.65;;;10.50;99.90;;;;;;5005852;28;20111;-90
2023/12/28 05:02:41;;;;;;;8.35;2.97;;;10.40;99.90;;;;;;5020828;28;20058;-90
2023/12/28 05:05:09;;;;;;;11.68;3.58;;;10.40;99.90;;;;;;5004555;28;20570;-90
2023/12/28 05:07:34;;;;;;;6.32;2.70;;;10.40;99.90;;;;;;5017196;28;20036;-89
2023/12/28 05:10:00;;;;;;;7.60;2.70;;;10.40;99.90;;;;;;5023793;28;20095;-89
2023/12/28 05:12:26;;;;;;;10.70;2.80;;;10.50;99.90;;;;;;5004878;28;20217;-91
2023/12/28 05:14:51;;;;;;;10.55;3.35;;;10.50;99.90;;;;;;5031052;28;20117;-90
2023/12/28 05:17:17;;;;;;;8.55;3.08;;;10.40;99.90;;;;;;5005425;28;20160;-90
2023/12/28 05:19:43;;;;;;;11.77;3.47;;;10.50;99.90;;;;;;5010455;28;20120;-90
2023/12/28 05:22:10;;;;;;;11.75;2.95;;;10.40;99.90;;;;;;5002761;28;20049;-90
2023/12/28 05:24:36;;;;;;;11.00;2.80;;;10.40;99.90;;;;;;5011726;28;20053;-90
2023/12/28 05:27:02;;;;;;;11.40;2.88;;;10.40;99.90;;;;;;5001893;28;20132;-90
2023/12/28 05:29:28;;;;;;;10.90;3.17;;;10.40;99.90;;;;;;4998267;28;20096;-90
2023/12/28 05:31:54;;;;;;;10.77;2.50;;;10.40;99.90;;;;;;5027800;28;20481;-91
2023/12/28 05:34:19;;;;;;;8.27;2.58;;;10.40;99.90;;;;;;5019629;28;20495;-89
2023/12/28 05:36:48;;;;;;;9.13;3.10;;;10.40;99.90;;;;;;5024904;28;20131;-82
2023/12/28 05:39:20;;;;;;;13.05;2.97;;;10.40;99.90;;;;;;5026842;28;20044;-89
2023/12/28 05:49:07;;;;;;;11.95;3.00;;;10.50;99.90;;;;;;5035890;28;20124;-82
2023/12/28 05:51:42;;;;;;;12.80;3.40;;;10.50;99.90;;;;;;5006534;28;20092;-90
2023/12/28 05:54:08;;;;;;;9.38;3.33;;;10.40;99.90;;;;;;4998956;28;20333;-89
2023/12/28 05:56:34;;;;;;;16.73;4.10;;;10.40;99.90;;;;;;5017169;28;20076;-91
2023/12/28 05:59:00;;;;;;;14.07;3.30;;;10.40;99.90;;;;;;5007653;28;20084;-88
2023/12/28 06:01:27;;;;;;;14.00;3.13;;;10.40;99.90;;;;;;5002051;28;20067;-89
2023/12/28 06:03:53;;;;;;;9.85;2.72;;;10.40;99.90;;;;;;5015162;28;20040;-91
2023/12/28 06:06:19;;;;;;;12.80;2.70;;;10.40;99.90;;;;;;5016209;28;20056;-90
2023/12/28 06:08:45;;;;;;;13.43;3.20;;;10.40;99.90;;;;;;5001584;28;20312;-90
2023/12/28 06:11:10;;;;;;;17.17;3.70;;;10.40;99.90;;;;;;4993504;28;20073;-89
2023/12/28 06:13:36;;;;;;;10.68;3.22;;;10.40;99.90;;;;;;4999374;28;20054;-90
2023/12/28 06:16:02;;;;;;;10.80;3.05;;;10.50;99.90;;;;;;4993357;28;20108;-89
2023/12/28 06:18:28;;;;;;;11.75;2.80;;;10.40;99.90;;;;;;4969009;28;20108;-90
2023/12/28 06:20:54;;;;;;;13.25;2.83;;;10.40;99.90;;;;;;4996760;28;20034;-90
2023/12/28 06:23:19;;;;;;;14.30;3.92;;;10.40;99.90;;;;;;4994930;28;20136;-89
2023/12/28 06:25:45;;;;;;;10.18;3.30;;;10.50;99.90;;;;;;4979172;28;20140;-89
2023/12/28 06:28:11;;;;;;;13.68;3.20;;;10.50;99.90;;;;;;4983445;28;20059;-91
2023/12/28 06:30:36;;;;;;;13.50;3.45;;;10.40;99.90;;;;;;4990544;28;20183;-88
2023/12/28 06:33:02;;;;;;;16.15;3.45;;;10.50;99.90;;;;;;4982271;28;20071;-90
2023/12/28 06:35:28;;;;;;;10.63;2.72;;;10.40;99.90;;;;;;4977198;28;20045;-89
2023/12/28 06:37:54;;;;;;;14.90;2.90;;;10.50;99.90;;;;;;4974341;28;20488;-90
2023/12/28 06:40:19;;;;;;;16.35;2.88;;;10.50;99.90;;;;;;4996797;28;20034;-90
2023/12/28 06:42:48;;;;;;;11.18;2.83;;;10.50;99.90;;;;;;4975020;28;20081;-90
2023/12/28 06:45:15;;;;;;;13.05;3.20;;;10.50;99.90;;;;;;4988166;28;20048;-91
2023/12/28 06:47:40;;;;;;;13.63;3.08;;;10.50;99.90;;;;;;4966867;28;20077;-88
2023/12/28 06:50:07;;;;;;;13.43;2.97;;;10.40;99.90;;;;;;4985410;28;20045;-89
2023/12/28 06:52:32;;;;;;;12.93;3.00;;;10.40;99.90;;;;;;4989767;28;20050;-90
2023/12/28 06:54:59;;;;;;;13.05;3.30;;;10.40;99.90;;;;;;4994836;28;20048;-89
2023/12/28 06:57:25;;;;;;;12.77;3.65;;;10.40;99.90;;;;;;4996591;28;20060;-90
2023/12/28 06:59:50;;;;;;;12.82;3.22;;;10.40;99.90;;;;;;4989991;28;20053;-90
2023/12/28 07:02:17;;;;;;;15.45;3.22;;;10.50;99.90;;;;;;4981709;28;20539;-90
2023/12/28 07:04:42;;;;;;;11.88;2.55;;;10.50;99.90;;;;;;4978300;28;20271;-90
2023/12/28 07:07:08;;;;;;;13.43;3.00;;;10.60;99.90;;;;;;4992981;28;20490;-90
2023/12/28 07:09:34;;;;;;;10.98;3.33;;;10.50;99.90;;;;;;4985129;28;20058;-90
2023/12/28 07:12:00;;;;;;;13.50;2.85;;;10.50;99.90;;;;;;4973946;28;21138;-90
2023/12/28 07:14:25;;;;;;;16.23;3.03;;;10.50;99.90;;;;;;4989724;28;20038;-89
2023/12/28 07:16:51;;;;;;;15.57;2.70;;;10.60;99.90;;;;;;4994855;28;20142;-90
2023/12/28 07:19:17;;;;;;;12.90;2.92;;;10.60;99.90;;;;;;4996689;28;20436;-89
2023/12/28 07:21:43;;;;;;;17.02;3.47;;;10.60;99.90;;;;;;4999075;28;20449;-90
2023/12/28 07:24:08;;;;;;;12.90;2.85;;;10.60;99.90;;;;;;5008338;28;20033;-90
2023/12/28 07:26:34;;;;;;;14.13;2.90;;;10.60;99.90;;;;;;4991982;28;20112;-89
2023/12/28 07:29:00;;;;;;;15.32;3.83;;;10.50;99.90;;;;;;4998547;28;20052;-89
2023/12/28 07:31:27;;;;;;;18.63;3.08;;;10.50;99.90;;;;;;4992558;28;20181;-87
2023/12/28 07:33:53;;;;;;;12.73;2.90;;;10.50;99.90;;;;;;4999188;28;20052;-90
2023/12/28 07:36:20;;;;;;;11.70;3.00;;;10.50;99.90;;;;;;4989620;28;20044;-90
2023/12/28 07:38:46;;;;;;;17.02;3.22;;;10.50;99.90;;;;;;4998798;28;20056;-90
2023/12/28 07:41:11;;;;;;;19.77;3.78;;;10.50;99.90;;;;;;4991025;28;20084;-88
2023/12/28 07:43:37;;;;;;;20.55;3.30;;;10.50;99.90;;;;;;4988592;28;20283;-89
2023/12/28 07:46:03;;;;;;;14.85;3.42;;;10.50;99.90;;;;;;4999850;28;20052;-89
2023/12/28 07:48:30;;;;;;;14.10;3.20;;;10.50;99.90;;;;;;4993672;28;20042;-90
2023/12/28 07:51:03;;;;;;;14.88;3.50;;;10.60;99.90;;;;;;5001202;28;20527;-90
2023/12/28 07:53:29;;;;;;;12.80;3.45;;;10.60;99.90;;;;;;4999676;28;20049;-90
2023/12/28 07:55:56;;;;;;;13.27;3.55;;;10.60;99.90;;;;;;5000597;28;20049;-90
2023/12/28 07:58:22;;;;;;;14.90;3.47;;;10.60;99.90;;;;;;5009356;28;20126;-88
2023/12/28 08:00:48;;;;;;;16.38;3.30;;;10.60;99.90;;;;;;5011187;28;20077;-90
2023/12/28 08:03:15;;;;;;;13.65;3.00;;;10.60;99.90;;;;;;4992970;28;20492;-88
2023/12/28 08:05:41;;;;;;;11.38;3.22;;;10.60;99.90;;;;;;4999136;28;20152;-90
2023/12/28 08:08:07;;;;;;;20.48;4.05;;;10.60;99.90;;;;;;5010368;28;20128;-89
2023/12/28 08:10:33;;;;;;;15.48;3.80;;;10.60;99.90;;;;;;4996227;28;20062;-90
2023/12/28 08:12:59;;;;;;;16.17;3.47;;;10.60;99.90;;;;;;4982732;28;20077;-89
2023/12/28 08:15:24;;;;;;;16.80;3.80;;;10.70;99.90;;;;;;4988562;28;20180;-82
2023/12/28 08:17:50;;;;;;;19.30;3.92;;;10.70;99.90;;;;;;4996383;28;20124;-81
2023/12/28 08:20:16;;;;;;;17.33;3.75;;;10.70;99.90;;;;;;4974563;28;20174;-82
2023/12/28 08:22:42;;;;;;;12.35;2.83;;;10.70;99.90;;;;;;4967910;28;20645;-91
2023/12/28 08:25:08;;;;;;;16.10;3.53;;;10.70;99.90;;;;;;4980667;28;20142;-90
2023/12/28 08:27:33;;;;;;;19.27;3.97;;;10.70;99.90;;;;;;4992948;28;20037;-90
2023/12/28 08:29:59;;;;;;;17.38;3.78;;;10.70;99.90;;;;;;4980221;28;20531;-90
2023/12/28 08:32:25;;;;;;;14.43;3.50;;;10.70;99.90;;;;;;4999737;28;20225;-90
2023/12/28 08:34:51;;;;;;;20.73;3.80;;;10.70;99.90;;;;;;4986141;28;20037;-89
2023/12/28 08:37:16;;;;;;;19.65;4.18;;;10.70;99.90;;;;;;4982519;28;20044;-90
2023/12/28 08:39:42;;;;;;;15.50;3.78;;;10.60;99.90;;;;;;4987309;28;20117;-90
2023/12/28 08:42:08;;;;;;;20.27;3.75;;;10.60;99.90;;;;;;5001667;28;20045;-90
2023/12/28 08:44:34;;;;;;;17.98;3.80;;;10.70;99.90;;;;;;4993705;28;20044;-90
2023/12/28 08:47:02;;;;;;;21.83;4.07;;;10.70;99.90;;;;;;5003459;28;20044;-90
2023/12/28 08:49:27;;;;;;;22.40;4.00;;;10.70;99.90;;;;;;4978733;28;20512;-88
2023/12/28 08:51:53;;;;;;;26.23;4.30;;;10.70;99.90;;;;;;4989021;28;20038;-89
2023/12/28 08:54:19;;;;;;;21.42;4.50;;;10.80;99.90;;;;;;4983756;28;20030;-90
2023/12/28 08:56:44;;;;;;;19.90;3.92;;;10.70;99.90;;;;;;4991023;28;20566;-88
2023/12/28 08:59:10;;;;;;;19.77;4.22;;;10.70;99.90;;;;;;4993259;28;20459;-89
2023/12/28 09:01:36;;;;;;;22.20;4.55;;;10.70;99.90;;;;;;4980767;28;20038;-90
2023/12/28 09:04:02;;;;;;;19.67;4.10;;;10.70;99.90;;;;;;4978830;28;20038;-89
2023/12/28 09:06:28;;;;;;;15.93;3.83;;;10.70;99.90;;;;;;4986299;28;20408;-90
2023/12/28 09:08:54;;;;;;;16.05;3.70;;;10.80;99.90;;;;;;4984551;28;20046;-90
2023/12/28 09:11:20;;;;;;;20.30;4.13;;;10.80;99.90;;;;;;4984630;28;20045;-90
2023/12/28 09:13:46;;;;;;;20.10;4.00;;;10.80;99.90;;;;;;4997772;28;20341;-89
2023/12/28 09:16:13;;;;;;;18.40;3.90;;;10.80;99.90;;;;;;4992850;28;20595;-90
2023/12/28 09:18:40;;;;;;;17.50;3.97;;;10.80;99.90;;;;;;4986164;28;20162;-90
2023/12/28 09:21:07;;;;;;;18.35;3.85;;;10.80;99.90;;;;;;4989122;28;20050;-91
2023/12/28 09:23:36;;;;;;;16.67;3.72;;;10.80;99.90;;;;;;4975235;28;20204;-90
2023/12/28 09:26:04;;;;;;;14.43;3.80;;;10.80;99.90;;;;;;4988913;28;20048;-90
2023/12/28 09:28:30;;;;;;;21.65;4.65;;;10.80;99.90;;;;;;4986287;28;20048;-88
2023/12/28 09:30:56;;;;;;;19.70;3.58;;;10.80;99.90;;;;;;5001015;28;20045;-90
2023/12/28 09:33:22;;;;;;;22.65;4.05;;;10.80;99.90;;;;;;4985240;28;20261;-91
2023/12/28 09:35:48;;;;;;;16.70;3.72;;;10.80;99.90;;;;;;4979069;28;20124;-90
2023/12/28 09:38:14;;;;;;;21.20;4.20;;;10.70;99.90;;;;;;4997860;28;20037;-89
2023/12/28 09:40:44;;;;;;;21.17;4.32;;;10.70;99.90;;;;;;4984579;28;20042;-91
2023/12/28 09:43:39;;;;;;;17.40;3.95;;;10.50;99.90;;;;;;4996300;28;20088;-89
2023/12/28 09:46:07;;;;;;;16.13;3.85;;;10.50;99.90;;;;;;4976268;28;20057;-86
2023/12/28 09:48:34;;;;;;;18.40;4.15;;;10.50;99.90;;;;;;5004050;28;20380;-90
2023/12/28 09:51:00;;;;;;;19.65;4.32;;;10.50;99.90;;;;;;4983355;28;20041;-90
2023/12/28 09:53:26;;;;;;;19.30;4.07;;;10.50;99.90;;;;;;4986329;28;20045;-90
2023/12/28 09:55:53;;;;;;;18.90;4.10;;;10.60;99.90;;;;;;4995456;28;20041;-86
2023/12/28 09:58:20;;;;;;;23.17;3.95;;;10.70;99.90;;;;;;5000388;28;20041;-90
2023/12/28 10:00:48;;;;;;;17.27;4.03;;;10.80;99.90;;;;;;4981476;28;20049;-91
2023/12/28 10:03:15;;;;;;;17.27;3.90;;;10.80;99.90;;;;;;4989748;28;20497;-89
2023/12/28 10:05:41;;;;;;;18.38;4.72;;;10.80;99.90;;;;;;4991548;28;20046;-89
2023/12/28 10:08:07;;;;;;;22.70;4.07;;;10.80;99.90;;;;;;5004701;28;20351;-90
2023/12/28 10:10:33;;;;;;;20.33;4.40;;;10.80;99.90;;;;;;4976312;28;20061;-90
2023/12/28 10:13:00;;;;;;;17.75;4.10;;;10.80;99.90;;;;;;4989003;28;20045;-88
2023/12/28 10:15:26;;;;;;;18.30;3.67;;;10.80;99.90;;;;;;5003278;28;20045;-89
2023/12/28 10:17:52;;;;;;;17.90;3.40;;;10.80;99.90;;;;;;5014896;28;20378;-90
2023/12/28 10:20:18;;;;;;;16.02;3.60;;;10.90;99.90;;;;;;4982314;28;20046;-90
2023/12/28 10:22:44;;;;;;;20.20;4.05;;;10.90;99.90;;;;;;5003909;28;20246;-89
2023/12/28 10:25:12;;;;;;;17.67;3.70;;;10.90;99.90;;;;;;4999733;28;20076;-90
2023/12/28 10:27:42;;;;;;;22.38;4.43;;;11.00;99.90;;;;;;4996565;28;20042;-90
2023/12/28 10:30:10;;;;;;;22.42;4.93;;;11.00;99.90;;;;;;4993174;28;20087;-90
2023/12/28 10:32:42;;;;;;;18.77;4.82;;;11.00;99.90;;;;;;4995463;28;20452;-90
2023/12/28 10:35:08;;;;;;;21.10;3.50;;;11.00;99.90;;;;;;4980415;28;20104;-91
2023/12/28 10:37:39;;;;;;;20.27;3.97;;;11.00;99.90;;;;;;4987068;28;20125;-89
2023/12/28 10:40:06;;;;;;;20.80;3.88;;;11.10;99.90;;;;;;4986024;28;20148;-90
2023/12/28 10:42:36;;;;;;;15.25;3.50;;;11.10;99.90;;;;;;4997652;28;20449;-89
2023/12/28 10:45:05;;;;;;;18.85;4.32;;;11.10;99.90;;;;;;4982840;28;20516;-89
2023/12/28 10:47:38;;;;;;;13.70;3.15;;;11.10;99.90;;;;;;5001321;28;20045;-89
2023/12/28 10:50:05;;;;;;;15.82;3.35;;;11.10;99.90;;;;;;4983130;28;20042;-90
2023/12/28 10:52:35;;;;;;;19.02;4.18;;;11.10;99.90;;;;;;5008258;28;20046;-90
2023/12/28 10:55:21;;;;;;;22.90;3.83;;;11.10;99.90;;;;;;4981053;28;20058;-89
2023/12/28 10:58:05;;;;;;;15.00;3.35;;;11.10;99.90;;;;;;4984076;28;20076;-90
2023/12/28 11:00:36;;;;;;;16.88;3.42;;;11.10;99.90;;;;;;5014497;28;20492;-90
2023/12/28 11:03:08;;;;;;;15.77;3.97;;;11.10;99.90;;;;;;4976718;28;20049;-91
2023/12/28 11:05:36;;;;;;;17.48;4.32;;;11.10;99.90;;;;;;4994215;28;20440;-91
2023/12/28 11:08:04;;;;;;;17.48;3.50;;;11.10;99.90;;;;;;4999506;28;20525;-90
2023/12/28 11:10:33;;;;;;;22.38;3.92;;;11.10;99.90;;;;;;5020881;28;20064;-89
2023/12/28 11:12:59;;;;;;;18.73;3.50;;;11.10;99.90;;;;;;5013510;28;20047;-90
2023/12/28 11:15:26;;;;;;;15.57;3.63;;;11.00;99.90;;;;;;5018799;28;20508;-90
2023/12/28 11:17:52;;;;;;;20.67;3.85;;;11.00;99.90;;;;;;5005750;28;20480;-90
2023/12/28 11:20:19;;;;;;;20.05;4.15;;;11.00;99.90;;;;;;5020734;28;20416;-91
2023/12/28 11:22:46;;;;;;;24.88;4.30;;;11.00;99.90;;;;;;5012853;28;20412;-89
2023/12/28 11:25:18;;;;;;;20.77;4.10;;;11.00;99.90;;;;;;5011923;28;20041;-91
2023/12/28 11:27:46;;;;;;;17.02;4.03;;;11.00;99.90;;;;;;5018838;28;20043;-90
2023/12/28 11:30:13;;;;;;;20.42;3.47;;;11.10;99.90;;;;;;5013130;28;20053;-89
2023/12/28 11:32:45;;;;;;;16.55;3.67;;;11.00;99.90;;;;;;5024180;28;20090;-89
2023/12/28 11:35:15;;;;;;;16.75;4.07;;;10.90;99.90;;;;;;5016976;28;20504;-91
2023/12/28 11:37:47;;;;;;;24.17;4.72;;;10.80;99.90;;;;;;5011279;28;20043;-89
2023/12/28 11:40:16;;;;;;;20.52;4.40;;;10.80;99.90;;;;;;5027075;28;20104;-90
2023/12/28 11:42:53;;;;;;;14.80;3.38;;;10.70;99.90;;;;;;5006808;28;20514;-91
2023/12/28 11:45:20;;;;;;;18.08;4.10;;;10.60;99.90;;;;;;5011597;28;20041;-89
2023/12/28 11:47:46;;;;;;;16.80;3.72;;;10.70;99.90;;;;;;5003611;28;20052;-89
2023/12/28 11:50:12;;;;;;;22.17;4.40;;;10.70;99.90;;;;;;5022899;28;20029;-90
2023/12/28 11:52:41;;;;;;;17.65;4.22;;;10.80;99.90;;;;;;5017642;28;20053;-90
2023/12/28 11:55:07;;;;;;;16.00;3.60;;;10.80;99.90;;;;;;5006411;28;20487;-90
2023/12/28 11:57:33;;;;;;;15.35;3.45;;;10.90;99.90;;;;;;5007048;28;20044;-90
2023/12/28 12:00:01;;;;;;;17.65;3.50;;;10.90;99.90;;;;;;5014562;28;20290;-89
2023/12/28 12:02:27;;;;;;;18.15;3.70;;;10.90;99.90;;;;;;5006620;28;20049;-90
2023/12/28 12:05:01;;;;;;;17.58;4.03;;;10.90;99.90;;;;;;5014723;28;20567;-90
2023/12/28 12:07:27;;;;;;;16.27;3.75;;;10.90;99.90;;;;;;5008829;28;20506;-91
2023/12/28 12:09:57;;;;;;;19.48;3.88;;;10.90;99.90;;;;;;5016467;28;20128;-90
2023/12/28 12:12:23;;;;;;;22.17;3.55;;;10.90;99.90;;;;;;5020175;28;20101;-90
2023/12/28 12:14:49;;;;;;;20.05;4.13;;;10.90;99.90;;;;;;5007590;28;20040;-89
2023/12/28 12:17:15;;;;;;;18.58;4.22;;;10.90;99.90;;;;;;5018082;28;20060;-89
2023/12/28 12:19:41;;;;;;;19.42;5.10;;;10.90;99.90;;;;;;5000958;28;20072;-91
2023/12/28 12:22:06;;;;;;;20.13;3.50;;;10.90;99.90;;;;;;5027644;28;20203;-89
2023/12/28 12:24:33;;;;;;;22.55;4.25;;;10.90;99.90;;;;;;5003593;28;20064;-91
2023/12/28 12:27:02;;;;;;;15.73;4.25;;;11.00;99.90;;;;;;5012224;28;20406;-90
2023/12/28 12:29:30;;;;;;;20.73;3.90;;;11.00;99.90;;;;;;5016318;28;20389;-90
2023/12/28 12:31:56;;;;;;;19.83;3.97;;;11.00;99.90;;;;;;5003148;28;20056;-86
2023/12/28 12:34:22;;;;;;;22.00;4.47;;;11.00;99.90;;;;;;4997371;28;20068;-89
2023/12/28 12:36:52;;;;;;;17.85;3.92;;;11.00;99.90;;;;;;4998769;28;20097;-88
2023/12/28 12:39:18;;;;;;;17.33;3.78;;;11.00;99.90;;;;;;5001640;28;20113;-91
2023/12/28 12:41:47;;;;;;;19.98;4.00;;;11.00;99.90;;;;;;5021584;28;20132;-88
2023/12/28 12:44:13;;;;;;;14.70;4.00;;;11.00;99.90;;;;;;5009852;28;20114;-90
2023/12/28 12:46:38;;;;;;;20.25;4.78;;;11.00;99.90;;;;;;5001595;28;20515;-89
2023/12/28 12:49:05;;;;;;;22.88;4.15;;;11.00;99.90;;;;;;5005338;28;20033;-88